Time;durP1;ratioP1;P1;durP2;ratioP2;P2;SDS_P1;SDS_P2;PMS_P1;PMS_P2;Temp;Humidity;BMP_temperature;BMP_pressure;BME280_temperature;BME280_humidity;BME280_pressure;Samples;Min_cycle;Max_cycle;Signal;HPM_P1;HPM_P2
2020/12/21 00:00:39;;;;;;;28.95;20.17;;;;;;;7.56;86.21;100876.38;9984463;28;20059;-65
2020/12/21 00:05:49;;;;;;;35.40;22.63;;;;;;;7.30;86.10;100844.28;9765888;28;20066;-65
2020/12/21 00:10:51;;;;;;;29.10;20.92;;;;;;;7.55;85.95;100886.13;9692653;28;20497;-66
2020/12/21 00:15:53;;;;;;;32.00;21.60;;;;;;;7.12;86.71;100814.41;9699458;28;20363;-65
2020/12/21 00:20:54;;;;;;;36.40;22.40;;;;;;;7.25;86.95;100831.31;9645739;28;21658;-65
2020/12/21 00:25:56;;;;;;;38.28;24.05;;;;;;;7.57;86.91;100884.22;9799131;28;20079;-65
2020/12/21 00:30:57;;;;;;;31.48;21.60;;;;;;;7.43;87.06;100855.00;9727086;28;20099;-65
2020/12/21 00:36:07;;;;;;;38.10;22.08;;;;;;;7.61;87.85;100880.47;9758351;28;20054;-66
2020/12/21 00:41:12;;;;;;;41.25;19.00;;;;;;;7.68;87.57;100877.44;9778004;28;20113;-64
2020/12/21 00:46:18;;;;;;;;;;;;;;;7.63;88.41;100877.72;9838468;28;20055;-64
2020/12/21 00:51:20;;;;;;;31.00;14.63;;;;;;;7.61;88.35;100869.00;9815379;28;19929;-65
2020/12/21 00:56:22;;;;;;;28.02;15.50;;;;;;;7.70;88.86;100883.50;9764087;28;23668;-66
2020/12/21 01:01:28;;;;;;;24.42;15.88;;;;;;;7.75;88.55;100874.34;9768921;28;20086;-65
2020/12/21 01:06:33;;;;;;;24.00;14.60;;;;;;;7.82;88.52;100866.03;9769899;28;20517;-64
2020/12/21 01:11:34;;;;;;;28.30;15.32;;;;;;;7.83;88.75;100865.09;9786477;28;20799;-64
2020/12/21 01:16:35;;;;;;;31.63;16.65;;;;;;;7.72;88.57;100861.28;9785555;28;20078;-66
2020/12/21 01:21:36;;;;;;;28.25;16.02;;;;;;;7.82;88.91;100880.16;9781249;28;20570;-65
2020/12/21 01:26:39;;;;;;;29.65;15.02;;;;;;;7.90;88.89;100885.00;9792069;28;20531;-66
2020/12/21 01:31:40;;;;;;;23.00;15.23;;;;;;;7.84;88.92;100883.56;9790413;28;20152;-64
2020/12/21 01:36:45;;;;;;;;;;;;;;;7.87;89.09;100885.19;9796741;28;20135;-64
2020/12/21 01:41:46;;;;;;;30.25;17.33;;;;;;;7.94;88.49;100899.75;9801720;28;20340;-65
2020/12/21 01:46:47;;;;;;;42.70;16.17;;;;;;;7.88;88.64;100889.53;9824827;28;20062;-64
2020/12/21 01:51:49;;;;;;;21.15;16.00;;;;;;;7.88;89.01;100879.78;9790285;28;20561;-65
2020/12/21 01:56:52;;;;;;;26.38;14.45;;;;;;;7.69;88.90;100874.72;9793268;28;20121;-64
2020/12/21 02:01:55;;;;;;;28.13;16.65;;;;;;;7.71;88.70;100866.66;9779646;28;20516;-64
2020/12/21 02:07:06;;;;;;;31.15;14.05;;;;;;;7.82;88.71;100892.53;9787795;28;20061;-64
2020/12/21 02:12:11;;;;;;;23.02;16.05;;;;;;;7.68;89.44;100874.81;9786455;28;20146;-65
2020/12/21 02:17:12;;;;;;;45.53;15.20;;;;;;;7.82;89.05;100892.53;9767996;28;20055;-65
2020/12/21 02:22:13;;;;;;;25.60;14.52;;;;;;;7.70;89.98;100900.28;9756428;28;20058;-65
2020/12/21 02:27:15;;;;;;;30.92;15.88;;;;;;;7.61;89.43;100858.41;9760276;28;20047;-65
2020/12/21 02:32:17;;;;;;;24.02;15.20;;;;;;;7.69;89.80;100895.91;9792468;28;20071;-64
2020/12/21 02:37:26;;;;;;;26.95;15.73;;;;;;;7.67;89.52;100865.13;9782595;28;20067;-65
2020/12/21 02:42:27;;;;;;;24.35;16.70;;;;;;;7.78;89.51;100883.94;9782710;28;22551;-64
2020/12/21 02:47:29;;;;;;;28.92;19.23;;;;;;;7.74;88.94;100859.38;9791033;28;20109;-65
2020/12/21 02:52:31;;;;;;;38.55;22.60;;;;;;;7.71;87.97;100854.25;9787925;28;20063;-65
2020/12/21 02:57:32;;;;;;;27.58;20.17;;;;;;;7.66;88.06;100856.34;9787374;28;21864;-64
2020/12/21 03:02:33;;;;;;;31.17;19.80;;;;;;;7.72;87.76;100869.22;9750417;28;20063;-65
2020/12/21 03:07:41;;;;;;;26.35;19.48;;;;;;;7.77;88.14;100869.81;9779950;28;22760;-66
2020/12/21 03:12:42;;;;;;;47.28;21.38;;;;;;;7.78;87.75;100874.16;9827935;28;20112;-64
2020/12/21 03:17:43;;;;;;;30.92;19.15;;;;;;;7.81;88.15;100872.25;9824162;28;20053;-64
2020/12/21 03:22:47;;;;;;;37.80;20.20;;;;;;;7.70;87.99;100855.22;9846061;28;20057;-65
2020/12/21 03:27:48;;;;;;;28.88;18.67;;;;;;;7.70;88.46;100863.19;9858601;28;20093;-64
2020/12/21 03:32:50;;;;;;;31.95;18.92;;;;;;;7.85;88.88;100865.84;9788660;28;20058;-64
2020/12/21 03:37:59;;;;;;;26.08;18.80;;;;;;;7.95;88.14;100878.47;9815528;28;20082;-64
2020/12/21 03:43:01;;;;;;;34.15;19.00;;;;;;;7.92;88.58;100878.66;9790235;28;20504;-65
2020/12/21 03:48:02;;;;;;;33.92;18.65;;;;;;;7.92;88.81;100877.81;9779738;28;20650;-64
2020/12/21 03:53:03;;;;;;;28.25;18.80;;;;;;;7.96;88.99;100874.03;9796250;28;20057;-65
2020/12/21 03:58:05;;;;;;;28.35;18.73;;;;;;;7.97;88.83;100875.72;9759701;28;20079;-68
2020/12/21 04:03:07;;;;;;;28.70;19.00;;;;;;;7.94;89.34;100884.72;9771022;28;20118;-64
2020/12/21 04:08:21;;;;;;;34.92;19.88;;;;;;;7.86;89.28;100857.81;9774075;28;20138;-65
2020/12/21 04:13:22;;;;;;;28.23;19.02;;;;;;;8.00;89.21;100867.59;9763366;28;722189;-72
2020/12/21 04:18:37;;;;;;;32.83;19.98;;;;;;;7.93;89.57;100858.31;9784327;28;20078;-65
2020/12/21 04:23:39;;;;;;;29.70;18.73;;;;;;;8.02;89.65;100856.91;9785361;28;20660;-65
2020/12/21 04:28:41;;;;;;;42.63;21.15;;;;;;;8.01;89.93;100850.72;10030430;28;20372;-65
2020/12/21 04:33:42;;;;;;;30.42;20.38;;;;;;;8.03;89.25;100859.47;9777785;28;20054;-65
2020/12/21 04:38:44;;;;;;;34.92;22.77;;;;;;;7.88;88.91;100847.97;9796797;28;20062;-68
2020/12/21 04:43:45;;;;;;;35.05;21.92;;;;;;;7.94;88.63;100858.22;9811393;28;20055;-65
2020/12/21 04:48:49;;;;;;;36.92;23.20;;;;;;;7.96;88.64;100864.28;9806157;28;21745;-65
2020/12/21 04:53:50;;;;;;;29.08;22.00;;;;;;;7.99;88.44;100865.91;9803014;28;20243;-65
2020/12/21 04:58:51;;;;;;;32.90;23.50;;;;;;;7.98;88.11;100861.53;9875867;28;20411;-65
2020/12/21 05:03:53;;;;;;;33.67;22.60;;;;;;;7.91;87.54;100849.56;9912103;28;20062;-65
2020/12/21 05:09:00;;;;;;;31.77;21.55;;;;;;;7.97;88.38;100849.22;9799659;28;20137;-64
2020/12/21 05:14:06;;;;;;;27.80;18.85;;;;;;;7.96;87.84;100848.38;9765558;28;20104;-63
2020/12/21 05:19:07;;;;;;;28.33;18.73;;;;;;;8.00;87.35;100859.66;9776691;28;20058;-64
2020/12/21 05:24:09;;;;;;;28.80;19.88;;;;;;;7.94;87.72;100865.28;9789557;28;20086;-65
2020/12/21 05:29:10;;;;;;;29.85;18.80;;;;;;;7.92;87.80;100869.84;9782200;28;20078;-63
2020/12/21 05:34:22;;;;;;;32.35;19.33;;;;;;;7.94;88.21;100875.91;9725187;28;20062;-65
2020/12/21 05:39:23;;;;;;;27.42;17.92;;;;;;;8.01;87.19;100865.81;9794121;28;20108;-64
2020/12/21 05:44:24;;;;;;;30.58;19.02;;;;;;;7.88;86.96;100842.69;9752392;28;20059;-64
2020/12/21 05:49:27;;;;;;;27.17;17.30;;;;;;;7.89;86.71;100846.19;9789335;28;20089;-63
2020/12/21 05:54:28;;;;;;;25.45;17.80;;;;;;;7.74;87.07;100840.84;9786283;28;20046;-65
2020/12/21 05:59:29;;;;;;;24.13;15.95;;;;;;;7.64;86.62;100839.69;9812976;28;22910;-64
2020/12/21 06:04:40;;;;;;;21.83;16.17;;;;;;;7.56;87.08;100840.13;9793202;28;21879;-64
2020/12/21 06:09:47;;;;;;;18.48;13.57;;;;;;;7.46;86.26;100838.09;9762372;28;20107;-65
2020/12/21 06:14:54;;;;;;;20.50;14.93;;;;;;;7.41;87.32;100833.91;9754055;28;20074;-64
2020/12/21 06:20:07;;;;;;;22.33;15.57;;;;;;;7.52;86.28;100833.31;9759225;28;20055;-64
2020/12/21 06:25:20;;;;;;;24.70;17.10;;;;;;;7.51;86.21;100831.59;9735685;28;20053;-66
2020/12/21 06:30:30;;;;;;;24.25;17.13;;;;;;;7.37;86.80;100807.69;9704007;28;20063;-70
2020/12/21 06:35:41;;;;;;;25.35;17.38;;;;;;;7.53;86.77;100818.25;9613936;28;20051;-68
2020/12/21 06:40:43;;;;;;;27.20;18.08;;;;;;;7.57;86.74;100822.44;9752634;28;20842;-66
2020/12/21 06:45:44;;;;;;;28.63;17.90;;;;;;;7.58;86.86;100813.53;9770795;28;20132;-66
2020/12/21 06:50:48;;;;;;;26.88;20.00;;;;;;;7.67;86.44;100822.75;9759761;28;20227;-68
2020/12/21 06:55:49;;;;;;;27.52;18.25;;;;;;;7.71;86.07;100819.81;9748978;28;20103;-68
2020/12/21 07:00:52;;;;;;;25.83;18.48;;;;;;;7.71;85.98;100811.88;9743791;28;20062;-69
2020/12/21 07:05:58;;;;;;;26.95;19.02;;;;;;;7.87;85.97;100826.88;9753941;28;20588;-66
2020/12/21 07:11:00;;;;;;;26.45;18.40;;;;;;;7.94;85.12;100828.19;9762332;28;24450;-65
2020/12/21 07:16:03;;;;;;;25.42;18.55;;;;;;;7.93;84.99;100831.81;9765069;28;20956;-67
2020/12/21 07:21:09;;;;;;;29.73;20.88;;;;;;;7.88;84.96;100828.56;9767042;28;20441;-67
2020/12/21 07:26:13;;;;;;;29.08;20.77;;;;;;;7.81;85.49;100840.47;9755180;28;20801;-66
2020/12/21 07:31:17;;;;;;;28.70;20.48;;;;;;;7.86;85.91;100855.16;9696243;28;20057;-65
2020/12/21 07:36:34;;;;;;;29.30;20.92;;;;;;;7.89;85.29;100856.78;9725983;28;20063;-64
2020/12/21 07:41:43;;;;;;;28.50;19.60;;;;;;;7.86;85.53;100847.19;9730426;28;20065;-64
2020/12/21 07:47:05;;;;;;;29.55;20.77;;;;;;;7.93;85.36;100837.09;9737135;28;20070;-65
2020/12/21 07:52:09;;;;;;;31.73;21.23;;;;;;;7.91;85.09;100838.97;9670467;28;20634;-66
2020/12/21 07:57:17;;;;;;;24.17;19.98;;;;;;;7.96;85.33;100842.22;9725292;28;20074;-64
2020/12/21 08:02:23;;;;;;;27.92;20.42;;;;;;;7.89;84.66;100830.28;9751450;28;20063;-64
2020/12/21 08:07:29;;;;;;;27.00;20.27;;;;;;;7.96;84.50;100848.38;9732650;28;20062;-63
2020/12/21 08:12:32;;;;;;;25.33;18.63;;;;;;;7.90;84.55;100826.69;9724321;28;20620;-65
2020/12/21 08:17:33;;;;;;;24.02;19.50;;;;;;;8.05;84.66;100838.16;9717789;28;20133;-63
2020/12/21 08:22:36;;;;;;;24.92;19.10;;;;;;;8.03;84.19;100822.34;9718507;28;20050;-65
2020/12/21 08:27:42;;;;;;;24.85;19.08;;;;;;;7.99;83.96;100819.94;9625229;28;20661;-66
2020/12/21 08:32:44;;;;;;;22.45;17.25;;;;;;;8.08;83.95;100820.25;9715292;28;21997;-64
2020/12/21 08:37:45;;;;;;;25.67;19.95;;;;;;;8.12;84.09;100834.16;9735049;28;20078;-65
2020/12/21 08:42:47;;;;;;;24.42;18.25;;;;;;;8.07;83.96;100807.09;9737906;28;22199;-66
2020/12/21 08:47:49;;;;;;;19.73;16.58;;;;;;;8.17;83.33;100820.63;9718385;28;20534;-64
2020/12/21 08:52:50;;;;;;;23.10;18.95;;;;;;;8.12;83.67;100832.38;9661994;28;20059;-68
2020/12/21 08:57:54;;;;;;;23.17;18.95;;;;;;;8.07;82.96;100807.09;9725966;28;20137;-67
2020/12/21 09:02:55;;;;;;;22.38;17.75;;;;;;;8.05;82.60;100806.34;9697437;28;22990;-66
2020/12/21 09:07:57;;;;;;;24.23;18.17;;;;;;;8.09;82.79;100806.06;9707060;28;20213;-65
2020/12/21 09:12:58;;;;;;;23.42;18.42;;;;;;;8.24;82.50;100830.78;9737642;28;20453;-63
2020/12/21 09:17:59;;;;;;;27.05;20.00;;;;;;;8.07;81.82;100829.16;9731043;28;20179;-66
2020/12/21 09:23:00;;;;;;;27.40;19.90;;;;;;;8.07;82.34;100847.72;9744366;28;20055;-66
2020/12/21 09:28:03;;;;;;;27.35;19.20;;;;;;;7.80;82.57;100783.97;9737321;28;20528;-66
2020/12/21 09:33:04;;;;;;;32.38;21.77;;;;;;;8.18;82.52;100830.31;9741547;28;20497;-65
2020/12/21 09:38:05;;;;;;;29.92;21.13;;;;;;;8.21;82.07;100824.81;9753833;28;20055;-69
2020/12/21 09:43:08;;;;;;;33.53;23.88;;;;;;;8.11;81.54;100804.16;9730634;28;20102;-66
2020/12/21 09:48:09;;;;;;;30.45;23.05;;;;;;;8.17;81.51;100815.31;9777484;28;20414;-66
2020/12/21 09:53:10;;;;;;;28.15;20.15;;;;;;;8.31;81.46;100813.53;9787504;28;20934;-67
2020/12/21 09:58:12;;;;;;;26.48;16.50;;;;;;;8.31;81.60;100813.53;9750798;28;20229;-65
2020/12/21 10:03:13;;;;;;;19.25;15.20;;;;;;;8.27;80.88;100788.16;9740708;28;20074;-65
2020/12/21 10:08:14;;;;;;;14.88;12.82;;;;;;;8.25;80.87;100783.88;9747357;28;20430;-66
2020/12/21 10:13:16;;;;;;;12.65;11.45;;;;;;;8.36;80.72;100786.75;9669491;28;20056;-66
2020/12/21 10:18:17;;;;;;;12.25;10.48;;;;;;;8.34;80.35;100777.16;9607726;28;21305;-66
2020/12/21 10:23:19;;;;;;;12.18;10.35;;;;;;;8.38;80.41;100763.59;9942249;28;20058;-66
2020/12/21 10:28:20;;;;;;;9.93;8.90;;;;;;;8.35;80.26;100749.66;9734728;28;20061;-68
2020/12/21 10:33:21;;;;;;;9.70;8.70;;;;;;;8.37;80.23;100735.38;9638109;28;23416;-67
2020/12/21 10:38:22;;;;;;;8.95;7.78;;;;;;;8.33;80.53;100733.84;9726951;28;20082;-67
2020/12/21 10:43:24;;;;;;;8.18;7.32;;;;;;;8.26;80.48;100709.53;9683077;28;20075;-67
2020/12/21 10:48:25;;;;;;;14.32;7.10;;;;;;;8.26;80.63;100712.19;9755127;28;20051;-67
2020/12/21 10:53:26;;;;;;;8.95;7.00;;;;;;;8.31;80.91;100693.31;9746683;28;20089;-71
2020/12/21 10:58:27;;;;;;;9.57;7.15;;;;;;;8.54;80.08;100705.16;9787337;28;21078;-67
2020/12/21 11:03:29;;;;;;;9.95;7.28;;;;;;;8.58;79.69;100690.72;9763179;28;21497;-66
2020/12/21 11:08:30;;;;;;;8.27;7.25;;;;;;;8.63;79.58;100685.97;9753663;28;20077;-65
2020/12/21 11:13:31;;;;;;;8.10;7.30;;;;;;;8.73;79.39;100691.50;9720797;28;20086;-66
2020/12/21 11:18:33;;;;;;;10.32;7.18;;;;;;;8.88;79.14;100681.69;9711103;28;20063;-68
2020/12/21 11:23:34;;;;;;;9.40;7.28;;;;;;;9.23;77.58;100662.50;9708975;28;20119;-66
2020/12/21 11:28:35;;;;;;;9.50;6.93;;;;;;;9.44;77.22;100670.81;9722387;28;20079;-67
2020/12/21 11:33:37;;;;;;;8.90;7.40;;;;;;;9.33;77.72;100649.47;9700027;28;20055;-65
2020/12/21 11:38:42;;;;;;;7.90;7.10;;;;;;;9.13;78.52;100617.16;9714996;28;20056;-66
2020/12/21 11:43:43;;;;;;;24.95;21.35;;;;;;;9.22;78.33;100628.09;9746827;28;20051;-71
2020/12/21 11:48:45;;;;;;;32.97;28.42;;;;;;;9.23;78.57;100627.13;9718449;28;20342;-68
2020/12/21 11:53:46;;;;;;;76.20;60.67;;;;;;;9.33;78.84;100622.91;9724695;28;20051;-67
2020/12/21 11:58:49;;;;;;;13.60;12.27;;;;;;;9.58;77.81;100587.50;9733469;28;22071;-66
2020/12/21 12:03:50;;;;;;;8.90;7.88;;;;;;;9.91;77.30;100597.50;9731007;28;20078;-66
2020/12/21 12:08:53;;;;;;;8.35;7.55;;;;;;;9.85;77.30;100595.28;9723362;28;23275;-65
2020/12/21 12:13:54;;;;;;;9.52;7.80;;;;;;;9.67;78.07;100572.69;9747961;28;22272;-67
2020/12/21 12:18:55;;;;;;;10.63;7.03;;;;;;;9.64;78.12;100575.56;9735823;28;20713;-65
2020/12/21 12:23:57;;;;;;;9.32;7.75;;;;;;;9.55;78.44;100569.94;9747277;28;20047;-70
2020/12/21 12:28:58;;;;;;;8.57;7.57;;;;;;;9.55;78.84;100555.81;9757528;28;20098;-70
2020/12/21 12:33:59;;;;;;;9.85;7.53;;;;;;;9.70;78.38;100524.63;9728292;28;20144;-65
2020/12/21 12:39:01;;;;;;;10.43;7.20;;;;;;;10.04;77.56;100538.09;9735066;28;21622;-65
2020/12/21 12:44:03;;;;;;;10.00;7.22;;;;;;;10.05;77.20;100518.53;9730304;28;20059;-65
2020/12/21 12:49:07;;;;;;;11.80;6.95;;;;;;;9.93;78.00;100519.44;9727246;28;20062;-65
2020/12/21 12:54:08;;;;;;;8.82;7.50;;;;;;;10.05;77.91;100518.53;9738820;28;20055;-66
2020/12/21 12:59:10;;;;;;;8.70;6.90;;;;;;;10.11;78.36;100504.75;9737647;28;20051;-65
2020/12/21 13:04:11;;;;;;;7.90;7.10;;;;;;;10.22;77.70;100503.97;9727105;28;20051;-65
2020/12/21 13:09:12;;;;;;;9.93;6.95;;;;;;;10.74;76.14;100484.03;9729782;28;22857;-66
2020/12/21 13:14:13;;;;;;;7.78;6.75;;;;;;;11.15;74.25;100479.09;9755227;28;20051;-65
2020/12/21 13:19:15;;;;;;;9.18;6.45;;;;;;;10.86;74.53;100434.31;9742138;28;20073;-65
2020/12/21 13:24:17;;;;;;;7.30;6.53;;;;;;;10.88;75.36;100468.81;9755384;28;20060;-65
2020/12/21 13:29:19;;;;;;;8.77;6.43;;;;;;;10.47;77.24;100448.94;9723604;28;24476;-64
2020/12/21 13:34:21;;;;;;;8.63;4.60;;;;;;;10.20;77.17;100453.53;9774687;28;20059;-64
2020/12/21 13:39:22;;;;;;;6.32;4.90;;;;;;;9.89;77.55;100415.97;9750478;28;22375;-64
2020/12/21 13:44:43;;;;;;;5.13;3.47;;;;;;;9.74;77.27;100414.44;9734562;28;20122;-65
2020/12/21 13:49:44;;;;;;;5.07;3.80;;;;;;;9.75;78.14;100425.94;9747952;28;20529;-62
2020/12/21 13:54:46;;;;;;;5.03;3.58;;;;;;;9.79;78.22;100412.28;9754998;28;20424;-63
2020/12/21 13:59:47;;;;;;;4.95;3.17;;;;;;;9.81;77.99;100399.72;9735765;28;22962;-63
2020/12/21 14:04:48;;;;;;;7.13;4.28;;;;;;;9.89;77.98;100402.66;9712604;28;20067;-63
2020/12/21 14:09:49;;;;;;;11.60;8.48;;;;;;;9.76;76.86;100391.25;9719316;28;20055;-63
2020/12/21 14:14:51;;;;;;;7.32;5.15;;;;;;;9.73;79.02;100370.22;9728267;28;20469;-65
2020/12/21 14:19:55;;;;;;;9.07;5.03;;;;;;;9.90;79.51;100391.03;9755804;28;20054;-64
2020/12/21 14:24:57;;;;;;;7.85;5.28;;;;;;;9.90;79.73;100388.38;9751238;28;24022;-70
2020/12/21 14:29:58;;;;;;;5.75;5.03;;;;;;;9.82;79.60;100374.84;9734187;28;20193;-63
2020/12/21 14:35:02;;;;;;;6.50;5.30;;;;;;;9.82;78.74;100377.50;9778829;28;21376;-64
2020/12/21 14:40:04;;;;;;;6.70;6.10;;;;;;;9.82;79.46;100377.50;9763016;28;20138;-65
2020/12/21 14:45:06;;;;;;;7.50;6.13;;;;;;;9.86;79.12;100386.09;9735231;28;20130;-63
2020/12/21 14:50:08;;;;;;;8.27;7.47;;;;;;;9.71;79.84;100377.44;9704149;28;20065;-65
2020/12/21 14:55:10;;;;;;;13.43;11.32;;;;;;;9.78;79.59;100383.16;9694896;28;20068;-64
2020/12/21 15:00:12;;;;;;;8.55;5.68;;;;;;;9.77;80.02;100376.16;9744187;28;20062;-64
2020/12/21 15:05:13;;;;;;;6.90;3.42;;;;;;;9.58;79.38;100353.63;9742807;28;20095;-65
2020/12/21 15:10:14;;;;;;;6.50;2.42;;;;;;;9.57;80.11;100364.34;9757938;28;21356;-65
2020/12/21 15:15:16;;;;;;;6.53;4.53;;;;;;;9.37;81.23;100343.63;9738229;28;20107;-65
2020/12/21 15:20:17;;;;;;;7.07;3.25;;;;;;;9.34;81.47;100338.53;9745693;28;22195;-65
2020/12/21 15:25:19;;;;;;;5.15;3.50;;;;;;;9.42;82.01;100356.56;9732728;28;20055;-64
2020/12/21 15:30:20;;;;;;;4.70;3.13;;;;;;;9.40;81.80;100363.78;9739257;28;20054;-64
2020/12/21 15:35:21;;;;;;;4.25;2.38;;;;;;;9.41;82.54;100365.47;9748867;28;20189;-66
2020/12/21 15:40:25;;;;;;;5.15;3.17;;;;;;;9.35;82.33;100371.25;9738040;28;20064;-64
2020/12/21 15:45:30;;;;;;;7.10;4.05;;;;;;;9.42;83.20;100377.81;9739438;28;20063;-62
2020/12/21 15:50:32;;;;;;;4.72;4.00;;;;;;;9.41;82.69;100376.09;9745780;28;20063;-64
2020/12/21 15:55:33;;;;;;;6.88;3.60;;;;;;;9.40;82.82;100362.94;9752536;28;20131;-64
2020/12/21 16:00:34;;;;;;;5.82;2.90;;;;;;;9.27;83.77;100341.75;9776315;28;20745;-64
2020/12/21 16:05:38;;;;;;;3.92;2.40;;;;;;;9.30;83.71;100322.94;9780446;28;20051;-64
2020/12/21 16:10:39;;;;;;;5.93;2.95;;;;;;;9.19;83.86;100300.66;9739865;28;20140;-66
2020/12/21 16:15:47;;;;;;;3.95;2.38;;;;;;;9.18;84.10;100301.63;9737088;28;20051;-66
2020/12/21 16:20:48;;;;;;;10.98;3.38;;;;;;;9.19;84.21;100290.03;9694006;28;20055;-64
2020/12/21 16:25:50;;;;;;;7.25;3.90;;;;;;;9.18;84.04;100275.06;9728983;28;20059;-66
2020/12/21 16:30:51;;;;;;;6.40;3.63;;;;;;;9.09;84.77;100254.50;9740745;28;20082;-65
2020/12/21 16:35:52;;;;;;;5.47;3.80;;;;;;;9.17;85.03;100268.06;9743379;28;21800;-66
2020/12/21 16:40:54;;;;;;;6.75;3.30;;;;;;;9.12;85.17;100256.09;9726904;28;20534;-65
2020/12/21 16:46:02;;;;;;;6.70;3.95;;;;;;;9.13;85.45;100266.59;9737977;28;20053;-65
2020/12/21 16:51:04;;;;;;;4.97;4.13;;;;;;;9.11;85.61;100257.03;9723659;28;20058;-65
2020/12/21 16:56:06;;;;;;;6.90;4.82;;;;;;;9.05;85.67;100253.03;9739031;28;20051;-65
2020/12/21 17:01:12;;;;;;;6.15;5.28;;;;;;;8.87;86.02;100226.03;9736205;28;20137;-65
2020/12/21 17:06:18;;;;;;;8.10;5.38;;;;;;;8.87;85.77;100214.56;9734064;28;20065;-65
2020/12/21 17:11:21;;;;;;;7.88;5.65;;;;;;;8.82;86.13;100220.22;9716810;28;20074;-68
2020/12/21 17:16:24;;;;;;;8.07;5.60;;;;;;;8.82;86.54;100221.06;9733891;28;22213;-66
2020/12/21 17:21:29;;;;;;;10.05;8.88;;;;;;;8.85;86.33;100207.56;9739683;28;20482;-65
2020/12/21 17:26:31;;;;;;;7.55;6.03;;;;;;;8.82;86.58;100210.44;9724218;28;20083;-66
2020/12/21 17:31:33;;;;;;;6.82;6.18;;;;;;;8.75;86.78;100203.06;9733925;28;20186;-66
2020/12/21 17:36:37;;;;;;;6.15;5.40;;;;;;;8.60;87.51;100203.22;9720457;28;20545;-65
2020/12/21 17:41:39;;;;;;;7.40;5.82;;;;;;;8.59;87.26;100203.34;9723373;28;20059;-68
2020/12/21 17:46:41;;;;;;;7.00;4.90;;;;;;;8.55;87.55;100202.72;9733658;28;20047;-66
2020/12/21 17:51:43;;;;;;;9.75;8.20;;;;;;;8.67;87.33;100195.66;9739897;28;20062;-66
2020/12/21 17:56:45;;;;;;;7.78;5.00;;;;;;;8.63;86.72;100188.88;9744070;28;21152;-66
2020/12/21 18:01:47;;;;;;;5.07;3.95;;;;;;;8.67;86.76;100193.84;9712360;28;20065;-65
2020/12/21 18:06:48;;;;;;;6.10;5.05;;;;;;;8.71;86.81;100183.00;9755143;28;20059;-65
2020/12/21 18:11:50;;;;;;;6.28;4.95;;;;;;;8.66;86.53;100173.59;9738711;28;20551;-66
2020/12/21 18:16:57;;;;;;;5.80;4.78;;;;;;;8.69;86.59;100174.31;9766063;28;20068;-66
2020/12/21 18:21:58;;;;;;;7.22;5.00;;;;;;;8.61;86.94;100156.31;9755847;28;20098;-65
2020/12/21 18:26:59;;;;;;;7.55;5.28;;;;;;;8.59;86.69;100142.31;9748279;28;20150;-65
2020/12/21 18:32:01;;;;;;;7.55;5.43;;;;;;;8.71;86.78;100157.31;9792313;28;20055;-65
2020/12/21 18:37:05;;;;;;;7.75;5.97;;;;;;;8.73;86.76;100146.59;9802393;28;20406;-65
2020/12/21 18:42:10;;;;;;;6.82;5.15;;;;;;;8.76;86.77;100136.59;9746007;28;20054;-66
2020/12/21 18:47:22;;;;;;;7.07;5.18;;;;;;;8.72;86.68;100129.84;9719911;28;20594;-65
2020/12/21 18:52:23;;;;;;;7.85;5.35;;;;;;;8.77;87.13;100122.38;9743805;28;20051;-66
2020/12/21 18:57:24;;;;;;;8.25;5.68;;;;;;;8.83;87.58;100116.59;9728647;28;20067;-63
2020/12/21 19:02:26;;;;;;;6.45;5.82;;;;;;;8.91;87.09;100117.81;9717654;28;20047;-64
2020/12/21 19:07:27;;;;;;;6.68;5.97;;;;;;;8.99;86.78;100123.38;9724158;28;20055;-65
2020/12/21 19:12:28;;;;;;;6.28;5.68;;;;;;;9.01;86.13;100108.22;9719492;28;22972;-66
2020/12/21 19:17:34;;;;;;;8.13;6.10;;;;;;;9.04;85.63;100107.97;9731165;28;20055;-65
2020/12/21 19:22:35;;;;;;;6.20;5.60;;;;;;;9.15;85.41;100101.81;9746303;28;20059;-66
2020/12/21 19:27:41;;;;;;;8.30;6.20;;;;;;;9.11;85.27;100098.56;9736646;28;20055;-66
2020/12/21 19:32:42;;;;;;;6.63;5.85;;;;;;;9.17;84.80;100095.44;9729717;28;20051;-65
2020/12/21 19:37:44;;;;;;;7.20;5.93;;;;;;;9.09;85.19;100089.88;9730529;28;20059;-65
2020/12/21 19:42:45;;;;;;;15.20;12.52;;;;;;;9.06;85.35;100084.78;9710491;28;20457;-66
2020/12/21 19:47:51;;;;;;;10.55;8.43;;;;;;;8.85;85.61;100050.94;9725083;28;20059;-67
2020/12/21 19:52:53;;;;;;;8.85;6.45;;;;;;;8.94;85.92;100085.75;9718275;28;20051;-66
2020/12/21 19:57:55;;;;;;;7.78;6.85;;;;;;;9.06;85.98;100098.06;9728695;28;20051;-66
2020/12/21 20:02:56;;;;;;;4.80;4.40;;;;;;;9.05;86.41;100088.41;9738371;28;20051;-66
2020/12/21 20:07:58;;;;;;;6.65;5.00;;;;;;;9.14;86.04;100082.41;9715039;28;20127;-68
2020/12/21 20:13:00;;;;;;;5.47;4.97;;;;;;;8.80;86.59;100037.19;9773911;28;20051;-64
2020/12/21 20:18:13;;;;;;;6.95;4.55;;;;;;;8.98;87.48;100055.34;9842784;28;20070;-66
2020/12/21 20:23:14;;;;;;;6.30;4.72;;;;;;;8.81;88.69;100036.25;9722929;28;22337;-66
2020/12/21 20:28:16;;;;;;;5.40;4.90;;;;;;;8.81;89.36;100040.69;9721904;28;22277;-65
2020/12/21 20:33:18;;;;;;;7.55;6.70;;;;;;;8.84;89.44;100059.91;9741660;28;23050;-66
2020/12/21 20:38:20;;;;;;;7.03;5.93;;;;;;;8.93;89.46;100044.22;9734811;28;20055;-66
2020/12/21 20:43:22;;;;;;;6.97;5.75;;;;;;;8.88;89.60;100047.22;9740890;28;20711;-65
2020/12/21 20:48:31;;;;;;;7.88;6.10;;;;;;;8.85;90.34;100034.19;9760405;28;20126;-65
2020/12/21 20:53:33;;;;;;;7.30;5.75;;;;;;;8.89;90.43;100045.41;9650155;28;24392;-66
2020/12/21 20:58:34;;;;;;;7.65;6.85;;;;;;;8.93;90.06;100042.44;9615711;28;20164;-67
2020/12/21 21:03:36;;;;;;;7.75;6.88;;;;;;;8.84;90.78;100033.34;9649537;28;20063;-67
2020/12/21 21:08:41;;;;;;;7.60;6.03;;;;;;;8.76;91.50;100022.47;9657397;28;20063;-65
2020/12/21 21:13:42;;;;;;;7.15;6.45;;;;;;;8.75;92.07;100012.84;9618761;28;21874;-67
2020/12/21 21:18:49;;;;;;;8.00;7.28;;;;;;;8.96;92.05;100010.34;9604196;28;20113;-66
2020/12/21 21:23:50;;;;;;;8.65;7.07;;;;;;;8.95;91.50;100002.50;9579183;28;21351;-67
2020/12/21 21:28:54;;;;;;;7.90;7.17;;;;;;;8.77;92.14;99994.97;9586672;28;20142;-67
2020/12/21 21:33:56;;;;;;;6.95;6.25;;;;;;;8.83;92.22;99994.50;9594526;28;25389;-67
2020/12/21 21:39:03;;;;;;;8.20;7.07;;;;;;;8.80;92.25;99980.63;9597295;28;20058;-67
2020/12/21 21:44:05;;;;;;;8.02;7.13;;;;;;;8.81;92.51;99977.84;9593901;28;25055;-66
2020/12/21 21:49:09;;;;;;;7.97;7.15;;;;;;;8.81;92.45;99975.19;9597922;28;20815;-68
2020/12/21 21:54:11;;;;;;;8.68;7.78;;;;;;;8.81;92.62;99995.56;9580279;28;20506;-66
2020/12/21 21:59:12;;;;;;;10.32;8.57;;;;;;;8.82;93.12;100003.41;9591756;28;20066;-66
2020/12/21 22:04:15;;;;;;;9.23;8.38;;;;;;;8.87;92.79;100011.03;9582054;28;20533;-66
2020/12/21 22:09:17;;;;;;;7.82;7.07;;;;;;;8.88;92.72;100001.25;9605699;28;20059;-66
2020/12/21 22:14:18;;;;;;;8.65;7.50;;;;;;;8.84;93.19;100006.81;9749625;28;21705;-66
2020/12/21 22:19:27;;;;;;;7.35;6.65;;;;;;;8.75;93.25;99977.47;9734570;28;20058;-65
2020/12/21 22:24:28;;;;;;;8.15;7.35;;;;;;;8.84;93.72;100000.63;9711763;28;20047;-64
2020/12/21 22:29:29;;;;;;;9.02;7.97;;;;;;;8.82;93.62;100003.41;9713172;28;20181;-66
2020/12/21 22:34:30;;;;;;;8.65;7.82;;;;;;;8.94;93.68;99992.81;9728788;28;20079;-65
2020/12/21 22:39:32;;;;;;;7.30;6.60;;;;;;;9.02;93.39;99987.75;9726729;28;20525;-66
2020/12/21 22:44:33;;;;;;;8.25;7.53;;;;;;;9.23;93.18;99973.75;9735887;28;20532;-66
2020/12/21 22:49:44;;;;;;;7.65;6.93;;;;;;;9.29;92.37;99994.50;9748099;28;20051;-66
2020/12/21 22:54:45;;;;;;;7.90;7.20;;;;;;;9.21;91.97;99981.84;9755892;28;20051;-65
2020/12/21 22:59:46;;;;;;;7.22;6.60;;;;;;;9.26;92.02;99970.84;9727651;28;20055;-71
2020/12/21 23:04:48;;;;;;;8.40;7.45;;;;;;;9.25;92.70;99982.44;9755145;28;20073;-69
2020/12/21 23:09:49;;;;;;;6.63;6.03;;;;;;;9.25;92.98;99985.94;9752738;28;20059;-65
2020/12/21 23:14:50;;;;;;;6.88;6.32;;;;;;;9.36;92.67;99966.50;9746658;28;20055;-65
2020/12/21 23:20:07;;;;;;;6.20;5.70;;;;;;;9.21;93.53;99965.91;9759310;28;20154;-65
2020/12/21 23:25:09;;;;;;;6.05;5.57;;;;;;;9.32;93.04;99970.34;9758066;28;20117;-67
2020/12/21 23:30:10;;;;;;;7.18;6.07;;;;;;;9.18;93.85;99958.19;9746172;28;20115;-65